createdAt,value
2022-11-17T00:01:04.872Z,6.04
2022-11-17T00:06:29.773Z,6.05
2022-11-17T00:12:06.813Z,6.06
2022-11-17T00:17:34.882Z,6.10
2022-11-17T00:22:58.750Z,6.11
2022-11-17T00:28:23.771Z,6.10
2022-11-17T00:34:03.770Z,6.11
2022-11-17T00:39:31.258Z,6.08
2022-11-17T00:44:54.773Z,6.07
2022-11-17T00:50:22.782Z,6.07
2022-11-17T00:55:46.800Z,6.06
2022-11-17T01:01:12.817Z,6.07
2022-11-17T01:06:39.797Z,6.06
2022-11-17T01:12:04.808Z,6.06
2022-11-17T01:17:28.805Z,6.01
2022-11-17T01:22:56.799Z,6.01
2022-11-17T01:28:20.804Z,5.99
2022-11-17T01:33:45.811Z,5.99
2022-11-17T01:39:12.802Z,5.96
2022-11-17T01:45:12.821Z,5.93
2022-11-17T01:50:47.807Z,5.91
2022-11-17T01:56:18.829Z,5.90
2022-11-17T02:02:01.907Z,5.90
2022-11-17T02:07:31.860Z,5.86
2022-11-17T02:13:00.801Z,5.83
2022-11-17T02:18:26.845Z,5.78
2022-11-17T02:24:28.849Z,5.79
2022-11-17T02:30:01.042Z,5.75
2022-11-17T02:35:35.858Z,5.68
2022-11-17T02:41:07.829Z,5.66
2022-11-17T02:46:38.973Z,5.64
2022-11-17T02:52:06.858Z,5.58
2022-11-17T02:57:49.847Z,5.52
2022-11-17T03:03:32.308Z,5.48
2022-11-17T03:09:05.874Z,5.50
2022-11-17T03:14:39.880Z,5.48
2022-11-17T03:20:13.873Z,5.43
2022-11-17T03:25:43.863Z,5.43
2022-11-17T03:31:09.948Z,5.42
2022-11-17T03:36:47.853Z,5.41
2022-11-17T03:42:17.849Z,5.38
2022-11-17T03:47:44.022Z,5.36
2022-11-17T03:53:14.225Z,5.27
2022-11-17T03:58:43.892Z,5.23
2022-11-17T04:04:15.873Z,5.17
2022-11-17T04:09:43.879Z,5.17
2022-11-17T04:15:20.863Z,5.16
2022-11-17T04:20:45.869Z,5.15
2022-11-17T04:26:26.866Z,5.12
2022-11-17T04:31:51.982Z,5.09
2022-11-17T04:37:23.876Z,5.12
2022-11-17T04:42:50.874Z,5.12
2022-11-17T04:48:16.260Z,5.14
2022-11-17T04:53:40.904Z,5.18
2022-11-17T04:59:07.913Z,5.18
2022-11-17T05:04:44.925Z,5.19
2022-11-17T05:10:08.882Z,5.20
2022-11-17T05:15:48.919Z,5.17
2022-11-17T05:21:17.915Z,5.17
2022-11-17T05:26:43.899Z,5.15
2022-11-17T05:32:10.918Z,5.14
2022-11-17T05:37:41.948Z,5.12
2022-11-17T05:43:07.219Z,5.11
2022-11-17T05:48:33.933Z,5.03
2022-11-17T05:53:59.912Z,5.02
2022-11-17T05:59:33.951Z,5.01
2022-11-17T06:05:01.929Z,4.97
2022-11-17T06:10:25.940Z,4.96
2022-11-17T06:15:50.967Z,4.96
2022-11-17T06:21:17.940Z,4.94
2022-11-17T06:26:42.918Z,4.90
2022-11-17T06:32:07.946Z,4.93
2022-11-17T06:37:35.929Z,4.92
2022-11-17T06:43:12.975Z,4.94
2022-11-17T06:48:41.963Z,4.98
2022-11-17T06:54:11.395Z,4.94
2022-11-17T06:59:35.989Z,4.96
2022-11-17T07:05:00.382Z,4.94
2022-11-17T07:10:28.039Z,4.91
2022-11-17T07:15:51.995Z,4.84
2022-11-17T07:21:18.996Z,4.85
2022-11-17T07:26:45.989Z,4.80
2022-11-17T07:32:11.310Z,4.80
2022-11-17T07:37:41.994Z,4.77
2022-11-17T07:43:10.058Z,4.75
2022-11-17T07:48:34.306Z,4.68
2022-11-17T07:53:59.024Z,4.72
2022-11-17T07:59:27.989Z,4.73
2022-11-17T08:04:53.015Z,4.73
2022-11-17T08:10:17.025Z,4.75
2022-11-17T08:15:45.045Z,4.77
2022-11-17T08:21:17.021Z,4.80
2022-11-17T08:26:42.028Z,4.83
2022-11-17T08:32:09.031Z,4.87
2022-11-17T08:37:40.011Z,4.92
2022-11-17T08:43:05.238Z,4.93
2022-11-17T08:48:32.042Z,5.00
2022-11-17T08:53:57.050Z,5.07
2022-11-17T08:59:23.025Z,5.13
2022-11-17T09:04:53.020Z,5.19
2022-11-17T09:10:18.011Z,5.22
2022-11-17T09:15:43.039Z,5.28
2022-11-17T09:21:15.046Z,5.32
2022-11-17T09:26:40.035Z,5.40
2022-11-17T09:32:05.021Z,5.47
2022-11-17T09:37:39.053Z,5.55
2022-11-17T09:43:04.007Z,5.65
2022-11-17T09:48:41.253Z,5.69
2022-11-17T09:54:15.057Z,5.75
2022-11-17T09:59:43.059Z,5.83
2022-11-17T10:05:09.051Z,5.99
2022-11-17T10:10:44.066Z,6.07
2022-11-17T10:16:13.045Z,6.13
2022-11-17T10:21:37.070Z,6.16
2022-11-17T10:27:05.058Z,6.24
2022-11-17T10:32:31.067Z,6.32
2022-11-17T10:38:10.106Z,6.43
2022-11-17T10:43:41.079Z,6.50
2022-11-17T10:49:12.062Z,6.58
2022-11-17T10:54:37.081Z,6.83
2022-11-17T11:00:07.078Z,7.02
2022-11-17T11:05:32.055Z,7.23
2022-11-17T11:10:59.066Z,7.43
2022-11-17T11:16:27.119Z,7.52
2022-11-17T11:22:08.108Z,7.52
2022-11-17T11:27:45.096Z,7.52
2022-11-17T11:33:27.078Z,7.53
2022-11-17T11:39:09.264Z,7.54
2022-11-17T11:44:43.100Z,7.52
2022-11-17T11:50:13.071Z,7.71
2022-11-17T11:55:49.112Z,7.81
2022-11-17T12:01:17.124Z,7.86
2022-11-17T12:06:56.098Z,7.90
2022-11-17T12:12:25.079Z,7.96
2022-11-17T12:17:50.125Z,8.00
2022-11-17T12:23:29.105Z,8.04
2022-11-17T12:28:55.126Z,8.08
2022-11-17T12:34:37.228Z,8.11
2022-11-17T12:40:18.200Z,8.13
2022-11-17T12:46:12.359Z,8.18
2022-11-17T12:51:47.108Z,8.28
2022-11-17T12:57:20.108Z,8.37
2022-11-17T13:03:09.139Z,8.46
2022-11-17T13:08:35.372Z,8.53
2022-11-17T13:14:02.166Z,8.57
2022-11-17T13:19:49.151Z,8.61
2022-11-17T13:31:56.276Z,8.66
2022-11-17T13:37:21.250Z,8.70
2022-11-17T13:42:46.149Z,8.74
2022-11-17T13:48:13.159Z,8.75
2022-11-17T13:53:41.158Z,8.77
2022-11-17T13:59:07.274Z,8.79
2022-11-17T14:04:35.200Z,8.81
2022-11-17T14:09:59.200Z,8.86
2022-11-17T14:15:32.290Z,8.84
2022-11-17T14:20:59.167Z,8.81
2022-11-17T14:26:30.183Z,8.81
2022-11-17T14:31:55.196Z,8.80
2022-11-17T14:37:23.195Z,8.81
2022-11-17T14:42:48.180Z,8.81
2022-11-17T14:48:18.766Z,8.77
2022-11-17T14:53:46.167Z,8.60
2022-11-17T14:59:12.410Z,8.43
2022-11-17T15:04:50.036Z,8.22
2022-11-17T15:10:19.268Z,8.04
2022-11-17T15:15:44.200Z,7.88
2022-11-17T15:21:11.185Z,7.79
2022-11-17T15:26:39.364Z,7.80
2022-11-17T15:32:04.210Z,7.78
2022-11-17T15:37:29.225Z,7.75
2022-11-17T15:42:57.204Z,7.72
2022-11-17T15:48:22.255Z,7.63
2022-11-17T15:53:49.214Z,7.58
2022-11-17T15:59:17.327Z,7.51
2022-11-17T16:04:43.229Z,7.45
2022-11-17T16:10:09.094Z,7.33
2022-11-17T16:15:37.227Z,7.25
2022-11-17T16:21:04.716Z,7.23
2022-11-17T16:26:32.422Z,7.19
2022-11-17T16:31:59.240Z,7.16
2022-11-17T16:37:24.327Z,7.14
2022-11-17T16:42:52.922Z,7.09
2022-11-17T16:48:23.518Z,7.07
2022-11-17T16:53:48.277Z,7.07
2022-11-17T16:59:14.645Z,7.06
2022-11-17T17:04:45.242Z,7.04
2022-11-17T17:10:10.553Z,7.03
2022-11-17T17:15:49.320Z,7.03
2022-11-17T17:21:22.308Z,7.05
2022-11-17T17:26:55.317Z,7.03
2022-11-17T17:32:20.242Z,7.02
2022-11-17T17:37:55.257Z,6.99
2022-11-17T17:43:20.385Z,6.93
2022-11-17T17:48:46.253Z,6.89
2022-11-17T17:54:19.342Z,6.86
2022-11-17T17:59:44.458Z,6.84
2022-11-17T18:05:29.328Z,6.83
2022-11-17T18:10:58.586Z,6.80
2022-11-17T18:16:39.629Z,6.79
2022-11-17T18:22:09.533Z,6.78
2022-11-17T18:27:43.582Z,6.77
2022-11-17T18:33:15.576Z,6.77
2022-11-17T18:38:48.320Z,6.77
2022-11-17T18:44:17.308Z,6.75
2022-11-17T18:49:49.355Z,6.72
2022-11-17T18:55:15.306Z,6.68
2022-11-17T19:00:42.339Z,6.65
2022-11-17T19:06:09.387Z,6.63
2022-11-17T19:11:36.363Z,6.59
2022-11-17T19:17:04.319Z,6.60
2022-11-17T19:22:29.303Z,6.60
2022-11-17T19:27:54.377Z,6.62
2022-11-17T19:33:21.341Z,6.61
2022-11-17T19:38:55.338Z,6.59
2022-11-17T19:44:20.361Z,6.60
2022-11-17T19:49:47.376Z,6.59
2022-11-17T19:55:12.514Z,6.59
2022-11-17T20:00:37.371Z,6.56
2022-11-17T20:06:09.318Z,6.54
2022-11-17T20:11:38.355Z,6.53
2022-11-17T20:17:03.462Z,6.54
2022-11-17T20:22:31.412Z,6.53
2022-11-17T20:27:56.646Z,6.49
2022-11-17T20:33:21.468Z,6.45
2022-11-17T20:38:55.416Z,6.46
2022-11-17T20:44:30.518Z,6.46
2022-11-17T20:49:54.451Z,6.43
2022-11-17T20:55:22.482Z,6.38
2022-11-17T21:00:46.385Z,6.36
2022-11-17T21:06:12.593Z,6.29
2022-11-17T21:11:53.390Z,6.27
2022-11-17T21:17:38.510Z,6.27
2022-11-17T21:23:02.716Z,6.30
2022-11-17T21:28:30.399Z,6.35
2022-11-17T21:33:55.419Z,6.35
2022-11-17T21:39:26.482Z,6.36
2022-11-17T21:44:54.383Z,6.36
2022-11-17T21:50:19.369Z,6.38
2022-11-17T21:55:44.415Z,6.42
2022-11-17T22:01:12.576Z,6.46
2022-11-17T22:06:37.423Z,6.48
2022-11-17T22:12:02.353Z,6.54
2022-11-17T22:17:30.431Z,6.57
2022-11-17T22:22:55.397Z,6.59
2022-11-17T22:28:21.442Z,6.61
2022-11-17T22:33:49.383Z,6.66
2022-11-17T22:39:16.701Z,6.68
2022-11-17T22:44:40.380Z,6.70
2022-11-17T22:50:08.398Z,6.72
2022-11-17T22:55:33.411Z,6.76
2022-11-17T23:00:59.391Z,6.78
2022-11-17T23:06:26.704Z,6.82
2022-11-17T23:11:52.446Z,6.88
2022-11-17T23:17:16.415Z,6.89
2022-11-17T23:22:45.425Z,6.90
2022-11-17T23:28:09.432Z,6.90
2022-11-17T23:33:34.428Z,6.92
2022-11-17T23:39:01.462Z,6.94
2022-11-17T23:44:26.453Z,6.96
2022-11-17T23:49:50.407Z,6.96
2022-11-17T23:55:18.710Z,6.97
